sensor_id;sensor_type;location;lat;lon;timestamp;P1;durP1;ratioP1;P2;durP2;ratioP2
73321;SDS011;61549;37.044;22.128;2022-08-07T00:01:16;5.47;;;4.97;;
73321;SDS011;61549;37.044;22.128;2022-08-07T00:03:43;5.57;;;4.72;;
73321;SDS011;61549;37.044;22.128;2022-08-07T00:06:09;6.80;;;5.00;;
73321;SDS011;61549;37.044;22.128;2022-08-07T00:08:35;5.20;;;4.70;;
73321;SDS011;61549;37.044;22.128;2022-08-07T00:11:02;6.45;;;4.95;;
73321;SDS011;61549;37.044;22.128;2022-08-07T00:13:28;6.72;;;5.00;;
73321;SDS011;61549;37.044;22.128;2022-08-07T00:15:55;5.13;;;4.63;;
73321;SDS011;61549;37.044;22.128;2022-08-07T00:18:22;5.30;;;4.68;;
73321;SDS011;61549;37.044;22.128;2022-08-07T00:20:49;6.20;;;4.50;;
73321;SDS011;61549;37.044;22.128;2022-08-07T00:23:20;5.50;;;4.90;;
73321;SDS011;61549;37.044;22.128;2022-08-07T00:25:47;6.47;;;4.70;;
73321;SDS011;61549;37.044;22.128;2022-08-07T00:28:13;5.45;;;4.95;;
73321;SDS011;61549;37.044;22.128;2022-08-07T00:30:39;5.65;;;5.00;;
73321;SDS011;61549;37.044;22.128;2022-08-07T00:33:05;5.03;;;4.57;;
73321;SDS011;61549;37.044;22.128;2022-08-07T00:35:31;5.38;;;4.88;;
73321;SDS011;61549;37.044;22.128;2022-08-07T00:37:57;4.90;;;4.50;;
73321;SDS011;61549;37.044;22.128;2022-08-07T00:40:24;4.80;;;4.40;;
73321;SDS011;61549;37.044;22.128;2022-08-07T00:42:51;5.47;;;4.97;;
73321;SDS011;61549;37.044;22.128;2022-08-07T00:45:17;5.10;;;4.70;;
73321;SDS011;61549;37.044;22.128;2022-08-07T00:47:45;5.30;;;4.60;;
73321;SDS011;61549;37.044;22.128;2022-08-07T00:50:11;4.75;;;4.35;;
73321;SDS011;61549;37.044;22.128;2022-08-07T00:52:37;5.20;;;4.70;;
73321;SDS011;61549;37.044;22.128;2022-08-07T00:55:03;5.35;;;4.75;;
73321;SDS011;61549;37.044;22.128;2022-08-07T00:57:29;4.65;;;4.25;;
73321;SDS011;61549;37.044;22.128;2022-08-07T00:59:55;5.07;;;4.57;;
73321;SDS011;61549;37.044;22.128;2022-08-07T01:02:22;4.80;;;4.40;;
73321;SDS011;61549;37.044;22.128;2022-08-07T01:04:48;4.97;;;4.40;;
73321;SDS011;61549;37.044;22.128;2022-08-07T01:07:15;5.90;;;4.65;;
73321;SDS011;61549;37.044;22.128;2022-08-07T01:09:41;5.28;;;4.78;;
73321;SDS011;61549;37.044;22.128;2022-08-07T01:12:07;5.00;;;4.50;;
73321;SDS011;61549;37.044;22.128;2022-08-07T01:14:33;4.70;;;4.30;;
73321;SDS011;61549;37.044;22.128;2022-08-07T01:16:59;5.18;;;4.68;;
73321;SDS011;61549;37.044;22.128;2022-08-07T01:19:25;4.20;;;3.83;;
73321;SDS011;61549;37.044;22.128;2022-08-07T01:21:53;4.60;;;4.20;;
73321;SDS011;61549;37.044;22.128;2022-08-07T01:24:20;4.38;;;3.90;;
73321;SDS011;61549;37.044;22.128;2022-08-07T01:26:47;4.90;;;4.50;;
73321;SDS011;61549;37.044;22.128;2022-08-07T01:29:17;5.07;;;3.92;;
73321;SDS011;61549;37.044;22.128;2022-08-07T01:31:44;4.57;;;4.18;;
73321;SDS011;61549;37.044;22.128;2022-08-07T01:34:10;4.72;;;4.32;;
73321;SDS011;61549;37.044;22.128;2022-08-07T01:36:38;4.68;;;4.28;;
73321;SDS011;61549;37.044;22.128;2022-08-07T01:39:04;5.32;;;4.32;;
73321;SDS011;61549;37.044;22.128;2022-08-07T01:41:30;4.45;;;4.10;;
73321;SDS011;61549;37.044;22.128;2022-08-07T01:43:56;4.70;;;4.10;;
73321;SDS011;61549;37.044;22.128;2022-08-07T01:46:22;4.70;;;4.30;;
73321;SDS011;61549;37.044;22.128;2022-08-07T01:48:48;4.50;;;4.10;;
73321;SDS011;61549;37.044;22.128;2022-08-07T01:51:18;6.80;;;4.20;;
73321;SDS011;61549;37.044;22.128;2022-08-07T01:53:46;4.40;;;4.00;;
73321;SDS011;61549;37.044;22.128;2022-08-07T01:59:22;4.45;;;4.05;;
73321;SDS011;61549;37.044;22.128;2022-08-07T02:02:06;4.57;;;4.13;;
73321;SDS011;61549;37.044;22.128;2022-08-07T02:04:55;5.22;;;4.32;;
73321;SDS011;61549;37.044;22.128;2022-08-07T02:07:28;4.40;;;4.10;;
73321;SDS011;61549;37.044;22.128;2022-08-07T02:09:57;4.78;;;4.38;;
73321;SDS011;61549;37.044;22.128;2022-08-07T02:12:26;4.63;;;4.22;;
73321;SDS011;61549;37.044;22.128;2022-08-07T02:14:56;4.80;;;4.40;;
73321;SDS011;61549;37.044;22.128;2022-08-07T02:17:24;5.35;;;4.22;;
73321;SDS011;61549;37.044;22.128;2022-08-07T02:19:51;4.80;;;4.40;;
73321;SDS011;61549;37.044;22.128;2022-08-07T02:22:18;5.25;;;4.75;;
73321;SDS011;61549;37.044;22.128;2022-08-07T02:24:47;4.40;;;4.00;;
73321;SDS011;61549;37.044;22.128;2022-08-07T02:27:17;4.80;;;4.40;;
73321;SDS011;61549;37.044;22.128;2022-08-07T02:29:46;4.75;;;4.35;;
73321;SDS011;61549;37.044;22.128;2022-08-07T02:32:13;5.40;;;4.97;;
73321;SDS011;61549;37.044;22.128;2022-08-07T02:34:41;4.70;;;4.25;;
73321;SDS011;61549;37.044;22.128;2022-08-07T02:37:08;5.05;;;4.57;;
73321;SDS011;61549;37.044;22.128;2022-08-07T02:39:35;5.63;;;4.50;;
73321;SDS011;61549;37.044;22.128;2022-08-07T02:42:04;5.80;;;4.70;;
73321;SDS011;61549;37.044;22.128;2022-08-07T02:44:31;4.95;;;4.53;;
73321;SDS011;61549;37.044;22.128;2022-08-07T02:46:58;5.70;;;4.47;;
73321;SDS011;61549;37.044;22.128;2022-08-07T02:49:25;5.25;;;4.75;;
73321;SDS011;61549;37.044;22.128;2022-08-07T02:51:52;5.13;;;4.72;;
73321;SDS011;61549;37.044;22.128;2022-08-07T02:54:22;4.80;;;4.40;;
73321;SDS011;61549;37.044;22.128;2022-08-07T02:56:51;5.05;;;4.65;;
73321;SDS011;61549;37.044;22.128;2022-08-07T02:59:20;5.18;;;4.68;;
73321;SDS011;61549;37.044;22.128;2022-08-07T03:01:49;5.10;;;4.60;;
73321;SDS011;61549;37.044;22.128;2022-08-07T03:04:16;5.00;;;4.60;;
73321;SDS011;61549;37.044;22.128;2022-08-07T03:06:44;5.10;;;4.60;;
73321;SDS011;61549;37.044;22.128;2022-08-07T03:09:12;5.07;;;4.68;;
73321;SDS011;61549;37.044;22.128;2022-08-07T03:11:39;5.70;;;5.13;;
73321;SDS011;61549;37.044;22.128;2022-08-07T03:14:05;5.30;;;4.80;;
73321;SDS011;61549;37.044;22.128;2022-08-07T03:16:32;4.97;;;4.57;;
73321;SDS011;61549;37.044;22.128;2022-08-07T03:18:59;5.20;;;4.70;;
73321;SDS011;61549;37.044;22.128;2022-08-07T03:21:26;5.30;;;4.80;;
73321;SDS011;61549;37.044;22.128;2022-08-07T03:23:54;6.68;;;4.65;;
73321;SDS011;61549;37.044;22.128;2022-08-07T03:26:21;5.57;;;4.72;;
73321;SDS011;61549;37.044;22.128;2022-08-07T03:28:57;5.60;;;5.10;;
73321;SDS011;61549;37.044;22.128;2022-08-07T03:31:26;5.13;;;4.72;;
73321;SDS011;61549;37.044;22.128;2022-08-07T03:33:57;5.35;;;4.85;;
73321;SDS011;61549;37.044;22.128;2022-08-07T03:36:25;5.95;;;5.28;;
73321;SDS011;61549;37.044;22.128;2022-08-07T03:38:52;6.03;;;5.43;;
73321;SDS011;61549;37.044;22.128;2022-08-07T03:41:22;5.50;;;5.00;;
73321;SDS011;61549;37.044;22.128;2022-08-07T03:43:48;6.05;;;5.30;;
73321;SDS011;61549;37.044;22.128;2022-08-07T03:46:14;5.63;;;5.05;;
73321;SDS011;61549;37.044;22.128;2022-08-07T03:48:41;5.78;;;5.00;;
73321;SDS011;61549;37.044;22.128;2022-08-07T03:51:07;5.57;;;4.80;;
73321;SDS011;61549;37.044;22.128;2022-08-07T03:53:35;6.05;;;5.50;;
73321;SDS011;61549;37.044;22.128;2022-08-07T03:56:03;5.72;;;5.10;;
73321;SDS011;61549;37.044;22.128;2022-08-07T03:58:30;5.50;;;5.00;;
73321;SDS011;61549;37.044;22.128;2022-08-07T04:00:56;5.32;;;4.93;;
73321;SDS011;61549;37.044;22.128;2022-08-07T04:03:23;5.97;;;5.47;;
73321;SDS011;61549;37.044;22.128;2022-08-07T04:05:49;6.20;;;5.22;;
73321;SDS011;61549;37.044;22.128;2022-08-07T04:08:15;5.50;;;5.00;;
73321;SDS011;61549;37.044;22.128;2022-08-07T04:10:41;5.70;;;5.10;;
73321;SDS011;61549;37.044;22.128;2022-08-07T04:13:14;5.65;;;5.07;;
73321;SDS011;61549;37.044;22.128;2022-08-07T04:15:40;6.43;;;5.85;;
73321;SDS011;61549;37.044;22.128;2022-08-07T04:18:07;5.90;;;5.40;;
73321;SDS011;61549;37.044;22.128;2022-08-07T04:20:35;7.60;;;5.95;;
73321;SDS011;61549;37.044;22.128;2022-08-07T04:23:01;6.15;;;5.50;;
73321;SDS011;61549;37.044;22.128;2022-08-07T04:25:27;6.30;;;5.70;;
73321;SDS011;61549;37.044;22.128;2022-08-07T04:27:54;5.93;;;5.32;;
73321;SDS011;61549;37.044;22.128;2022-08-07T04:30:20;6.45;;;5.85;;
73321;SDS011;61549;37.044;22.128;2022-08-07T04:32:46;6.40;;;5.57;;
73321;SDS011;61549;37.044;22.128;2022-08-07T04:35:12;6.35;;;5.75;;
73321;SDS011;61549;37.044;22.128;2022-08-07T04:37:38;6.28;;;5.68;;
73321;SDS011;61549;37.044;22.128;2022-08-07T04:40:04;6.47;;;5.88;;
73321;SDS011;61549;37.044;22.128;2022-08-07T04:42:31;7.28;;;6.30;;
73321;SDS011;61549;37.044;22.128;2022-08-07T04:44:59;8.95;;;5.93;;
73321;SDS011;61549;37.044;22.128;2022-08-07T04:52:54;8.13;;;5.85;;
73321;SDS011;61549;37.044;22.128;2022-08-07T04:55:47;6.38;;;5.78;;
73321;SDS011;61549;37.044;22.128;2022-08-07T05:00:52;6.68;;;5.97;;
73321;SDS011;61549;37.044;22.128;2022-08-07T05:03:35;6.68;;;6.00;;
73321;SDS011;61549;37.044;22.128;2022-08-07T05:06:31;6.70;;;5.97;;
73321;SDS011;61549;37.044;22.128;2022-08-07T05:11:47;7.57;;;6.40;;
73321;SDS011;61549;37.044;22.128;2022-08-07T05:14:21;7.50;;;6.80;;
73321;SDS011;61549;37.044;22.128;2022-08-07T05:16:53;6.93;;;6.05;;
73321;SDS011;61549;37.044;22.128;2022-08-07T05:19:23;7.43;;;6.63;;
73321;SDS011;61549;37.044;22.128;2022-08-07T05:21:54;9.45;;;7.03;;
73321;SDS011;61549;37.044;22.128;2022-08-07T05:24:23;7.32;;;6.63;;
73321;SDS011;61549;37.044;22.128;2022-08-07T05:26:51;8.35;;;6.78;;
73321;SDS011;61549;37.044;22.128;2022-08-07T05:29:19;7.25;;;6.55;;
73321;SDS011;61549;37.044;22.128;2022-08-07T05:31:47;9.15;;;6.80;;
73321;SDS011;61549;37.044;22.128;2022-08-07T05:34:15;7.82;;;7.00;;
73321;SDS011;61549;37.044;22.128;2022-08-07T05:36:44;7.53;;;6.85;;
73321;SDS011;61549;37.044;22.128;2022-08-07T05:39:14;9.30;;;6.82;;
73321;SDS011;61549;37.044;22.128;2022-08-07T05:41:41;7.10;;;6.50;;
73321;SDS011;61549;37.044;22.128;2022-08-07T05:44:08;8.20;;;6.85;;
73321;SDS011;61549;37.044;22.128;2022-08-07T05:46:36;6.80;;;6.22;;
73321;SDS011;61549;37.044;22.128;2022-08-07T05:49:06;7.22;;;6.63;;
73321;SDS011;61549;37.044;22.128;2022-08-07T05:51:33;7.28;;;6.57;;
73321;SDS011;61549;37.044;22.128;2022-08-07T05:54:00;6.95;;;6.25;;
73321;SDS011;61549;37.044;22.128;2022-08-07T05:56:26;7.80;;;7.00;;
73321;SDS011;61549;37.044;22.128;2022-08-07T05:58:53;7.47;;;6.78;;
73321;SDS011;61549;37.044;22.128;2022-08-07T06:01:19;7.45;;;6.40;;
73321;SDS011;61549;37.044;22.128;2022-08-07T06:03:50;7.18;;;5.95;;
73321;SDS011;61549;37.044;22.128;2022-08-07T06:06:19;7.13;;;6.43;;
73321;SDS011;61549;37.044;22.128;2022-08-07T06:08:45;7.18;;;6.43;;
73321;SDS011;61549;37.044;22.128;2022-08-07T06:11:12;7.20;;;6.57;;
73321;SDS011;61549;37.044;22.128;2022-08-07T06:13:38;7.75;;;6.90;;
73321;SDS011;61549;37.044;22.128;2022-08-07T06:16:05;8.00;;;7.30;;
73321;SDS011;61549;37.044;22.128;2022-08-07T06:18:31;9.82;;;7.00;;
73321;SDS011;61549;37.044;22.128;2022-08-07T06:20:59;10.32;;;7.85;;
73321;SDS011;61549;37.044;22.128;2022-08-07T06:23:26;8.60;;;7.72;;
73321;SDS011;61549;37.044;22.128;2022-08-07T06:25:52;8.70;;;7.90;;
73321;SDS011;61549;37.044;22.128;2022-08-07T06:28:18;8.55;;;7.75;;
73321;SDS011;61549;37.044;22.128;2022-08-07T06:30:44;9.02;;;8.10;;
73321;SDS011;61549;37.044;22.128;2022-08-07T06:33:10;9.68;;;7.65;;
73321;SDS011;61549;37.044;22.128;2022-08-07T06:35:36;8.05;;;7.25;;
73321;SDS011;61549;37.044;22.128;2022-08-07T06:38:02;8.00;;;7.20;;
73321;SDS011;61549;37.044;22.128;2022-08-07T06:40:29;8.55;;;7.40;;
73321;SDS011;61549;37.044;22.128;2022-08-07T06:42:59;7.35;;;6.65;;
73321;SDS011;61549;37.044;22.128;2022-08-07T06:45:26;7.28;;;6.55;;
73321;SDS011;61549;37.044;22.128;2022-08-07T06:47:54;8.00;;;7.13;;
73321;SDS011;61549;37.044;22.128;2022-08-07T06:50:20;6.82;;;6.20;;
73321;SDS011;61549;37.044;22.128;2022-08-07T06:52:47;9.77;;;6.45;;
73321;SDS011;61549;37.044;22.128;2022-08-07T06:55:21;6.95;;;6.20;;
73321;SDS011;61549;37.044;22.128;2022-08-07T06:57:49;7.30;;;6.15;;
73321;SDS011;61549;37.044;22.128;2022-08-07T07:00:17;6.25;;;5.63;;
73321;SDS011;61549;37.044;22.128;2022-08-07T07:02:44;6.57;;;5.97;;
73321;SDS011;61549;37.044;22.128;2022-08-07T07:05:12;6.50;;;5.57;;
73321;SDS011;61549;37.044;22.128;2022-08-07T07:07:38;6.63;;;5.90;;
73321;SDS011;61549;37.044;22.128;2022-08-07T07:10:04;6.53;;;5.93;;
73321;SDS011;61549;37.044;22.128;2022-08-07T07:15:20;6.13;;;5.63;;
73321;SDS011;61549;37.044;22.128;2022-08-07T07:20:43;6.72;;;6.10;;
73321;SDS011;61549;37.044;22.128;2022-08-07T07:23:16;6.20;;;5.70;;
73321;SDS011;61549;37.044;22.128;2022-08-07T07:25:43;7.38;;;6.00;;
73321;SDS011;61549;37.044;22.128;2022-08-07T07:30:44;6.97;;;5.70;;
73321;SDS011;61549;37.044;22.128;2022-08-07T07:33:15;6.78;;;5.88;;
73321;SDS011;61549;37.044;22.128;2022-08-07T07:35:45;6.97;;;5.60;;
73321;SDS011;61549;37.044;22.128;2022-08-07T07:38:13;5.88;;;5.38;;
73321;SDS011;61549;37.044;22.128;2022-08-07T07:40:43;6.03;;;5.43;;
73321;SDS011;61549;37.044;22.128;2022-08-07T07:43:10;6.68;;;5.60;;
73321;SDS011;61549;37.044;22.128;2022-08-07T07:45:38;7.63;;;5.45;;
73321;SDS011;61549;37.044;22.128;2022-08-07T07:48:06;6.20;;;5.60;;
73321;SDS011;61549;37.044;22.128;2022-08-07T07:50:34;6.53;;;5.57;;
73321;SDS011;61549;37.044;22.128;2022-08-07T07:53:02;5.90;;;5.40;;
73321;SDS011;61549;37.044;22.128;2022-08-07T07:55:31;6.28;;;5.78;;
73321;SDS011;61549;37.044;22.128;2022-08-07T07:57:58;6.18;;;5.68;;
73321;SDS011;61549;37.044;22.128;2022-08-07T08:00:28;6.38;;;5.78;;
73321;SDS011;61549;37.044;22.128;2022-08-07T08:02:56;5.60;;;5.10;;
73321;SDS011;61549;37.044;22.128;2022-08-07T08:05:29;5.72;;;5.07;;
73321;SDS011;61549;37.044;22.128;2022-08-07T08:07:55;4.90;;;4.50;;
73321;SDS011;61549;37.044;22.128;2022-08-07T08:10:21;5.32;;;4.82;;
73321;SDS011;61549;37.044;22.128;2022-08-07T08:12:47;7.82;;;4.78;;
73321;SDS011;61549;37.044;22.128;2022-08-07T08:15:14;23.30;;;5.97;;
73321;SDS011;61549;37.044;22.128;2022-08-07T08:17:40;5.15;;;4.75;;
73321;SDS011;61549;37.044;22.128;2022-08-07T08:20:08;5.30;;;4.80;;
73321;SDS011;61549;37.044;22.128;2022-08-07T08:22:38;5.28;;;4.78;;
73321;SDS011;61549;37.044;22.128;2022-08-07T08:25:25;4.65;;;4.30;;
73321;SDS011;61549;37.044;22.128;2022-08-07T08:28:21;5.20;;;4.70;;
73321;SDS011;61549;37.044;22.128;2022-08-07T08:30:51;6.28;;;4.75;;
73321;SDS011;61549;37.044;22.128;2022-08-07T08:33:21;5.10;;;4.70;;
73321;SDS011;61549;37.044;22.128;2022-08-07T08:35:51;5.38;;;4.85;;
73321;SDS011;61549;37.044;22.128;2022-08-07T08:38:21;5.43;;;4.82;;
73321;SDS011;61549;37.044;22.128;2022-08-07T08:40:52;4.85;;;4.45;;
73321;SDS011;61549;37.044;22.128;2022-08-07T08:48:58;5.00;;;4.50;;
73321;SDS011;61549;37.044;22.128;2022-08-07T08:51:31;6.25;;;4.63;;
73321;SDS011;61549;37.044;22.128;2022-08-07T08:54:13;4.78;;;4.35;;
73321;SDS011;61549;37.044;22.128;2022-08-07T08:56:46;5.15;;;4.70;;
73321;SDS011;61549;37.044;22.128;2022-08-07T09:07:56;6.13;;;4.65;;
73321;SDS011;61549;37.044;22.128;2022-08-07T09:10:45;4.60;;;4.20;;
73321;SDS011;61549;37.044;22.128;2022-08-07T09:16:04;5.00;;;4.50;;
73321;SDS011;61549;37.044;22.128;2022-08-07T09:26:52;4.70;;;4.30;;
73321;SDS011;61549;37.044;22.128;2022-08-07T09:29:52;4.60;;;4.20;;
73321;SDS011;61549;37.044;22.128;2022-08-07T09:32:45;6.15;;;4.40;;
73321;SDS011;61549;37.044;22.128;2022-08-07T09:35:50;4.65;;;4.25;;
73321;SDS011;61549;37.044;22.128;2022-08-07T09:38:50;6.07;;;4.90;;
73321;SDS011;61549;37.044;22.128;2022-08-07T09:41:41;5.07;;;4.68;;
73321;SDS011;61549;37.044;22.128;2022-08-07T09:44:18;4.90;;;4.40;;
73321;SDS011;61549;37.044;22.128;2022-08-07T09:47:02;5.15;;;4.65;;
73321;SDS011;61549;37.044;22.128;2022-08-07T09:52:41;5.88;;;4.40;;
73321;SDS011;61549;37.044;22.128;2022-08-07T09:55:28;5.05;;;4.55;;
73321;SDS011;61549;37.044;22.128;2022-08-07T09:58:23;4.50;;;4.10;;
73321;SDS011;61549;37.044;22.128;2022-08-07T10:04:02;4.82;;;4.30;;
73321;SDS011;61549;37.044;22.128;2022-08-07T10:06:36;5.03;;;4.53;;
73321;SDS011;61549;37.044;22.128;2022-08-07T10:11:50;5.75;;;4.53;;
73321;SDS011;61549;37.044;22.128;2022-08-07T10:17:31;5.07;;;4.30;;
73321;SDS011;61549;37.044;22.128;2022-08-07T10:20:30;4.50;;;4.20;;
73321;SDS011;61549;37.044;22.128;2022-08-07T10:23:18;4.95;;;4.55;;
73321;SDS011;61549;37.044;22.128;2022-08-07T10:26:25;4.93;;;4.40;;
73321;SDS011;61549;37.044;22.128;2022-08-07T10:37:42;6.07;;;5.47;;
73321;SDS011;61549;37.044;22.128;2022-08-07T10:40:27;7.40;;;5.28;;
73321;SDS011;61549;37.044;22.128;2022-08-07T10:43:19;5.63;;;5.13;;
73321;SDS011;61549;37.044;22.128;2022-08-07T10:45:48;5.97;;;5.38;;
73321;SDS011;61549;37.044;22.128;2022-08-07T10:51:17;5.50;;;5.00;;
73321;SDS011;61549;37.044;22.128;2022-08-07T10:54:04;5.57;;;5.07;;
73321;SDS011;61549;37.044;22.128;2022-08-07T11:02:55;6.20;;;5.35;;
73321;SDS011;61549;37.044;22.128;2022-08-07T11:13:46;5.78;;;5.20;;
73321;SDS011;61549;37.044;22.128;2022-08-07T11:16:19;7.28;;;4.90;;
73321;SDS011;61549;37.044;22.128;2022-08-07T11:18:49;5.40;;;4.90;;
73321;SDS011;61549;37.044;22.128;2022-08-07T11:29:44;7.45;;;5.25;;
73321;SDS011;61549;37.044;22.128;2022-08-07T11:32:39;5.68;;;5.05;;
73321;SDS011;61549;37.044;22.128;2022-08-07T11:35:07;5.65;;;5.13;;
73321;SDS011;61549;37.044;22.128;2022-08-07T11:37:41;5.57;;;5.13;;
73321;SDS011;61549;37.044;22.128;2022-08-07T11:43:24;5.90;;;5.30;;
73321;SDS011;61549;37.044;22.128;2022-08-07T11:48:57;5.72;;;5.22;;
73321;SDS011;61549;37.044;22.128;2022-08-07T11:57:02;7.15;;;5.60;;
73321;SDS011;61549;37.044;22.128;2022-08-07T12:07:56;5.80;;;5.35;;
73321;SDS011;61549;37.044;22.128;2022-08-07T12:10:39;5.70;;;5.20;;
73321;SDS011;61549;37.044;22.128;2022-08-07T12:16:12;5.68;;;5.18;;
73321;SDS011;61549;37.044;22.128;2022-08-07T12:18:45;6.22;;;5.63;;
73321;SDS011;61549;37.044;22.128;2022-08-07T12:25:29;5.63;;;5.13;;
73321;SDS011;61549;37.044;22.128;2022-08-07T12:28:25;5.55;;;5.05;;
73321;SDS011;61549;37.044;22.128;2022-08-07T12:33:59;9.13;;;5.50;;
73321;SDS011;61549;37.044;22.128;2022-08-07T12:36:26;5.97;;;5.38;;
73321;SDS011;61549;37.044;22.128;2022-08-07T12:38:54;6.90;;;5.50;;
73321;SDS011;61549;37.044;22.128;2022-08-07T12:41:22;5.70;;;5.05;;
73321;SDS011;61549;37.044;22.128;2022-08-07T12:43:51;6.25;;;5.13;;
73321;SDS011;61549;37.044;22.128;2022-08-07T12:51:47;5.68;;;5.10;;
73321;SDS011;61549;37.044;22.128;2022-08-07T12:54:39;5.78;;;5.20;;
73321;SDS011;61549;37.044;22.128;2022-08-07T12:57:13;4.93;;;4.40;;
73321;SDS011;61549;37.044;22.128;2022-08-07T12:59:42;5.57;;;4.75;;
73321;SDS011;61549;37.044;22.128;2022-08-07T13:11:20;5.97;;;5.20;;
73321;SDS011;61549;37.044;22.128;2022-08-07T13:16:57;5.97;;;5.45;;
73321;SDS011;61549;37.044;22.128;2022-08-07T13:22:58;6.25;;;4.97;;
73321;SDS011;61549;37.044;22.128;2022-08-07T13:25:34;6.75;;;5.13;;
73321;SDS011;61549;37.044;22.128;2022-08-07T13:28:40;5.70;;;4.97;;
73321;SDS011;61549;37.044;22.128;2022-08-07T13:31:16;7.78;;;5.47;;
73321;SDS011;61549;37.044;22.128;2022-08-07T13:33:50;7.20;;;5.95;;
73321;SDS011;61549;37.044;22.128;2022-08-07T13:36:42;8.38;;;6.72;;
73321;SDS011;61549;37.044;22.128;2022-08-07T13:39:25;14.07;;;6.72;;
73321;SDS011;61549;37.044;22.128;2022-08-07T13:42:08;9.55;;;6.47;;
73321;SDS011;61549;37.044;22.128;2022-08-07T13:44:38;7.65;;;6.30;;
73321;SDS011;61549;37.044;22.128;2022-08-07T13:47:09;8.23;;;6.10;;
73321;SDS011;61549;37.044;22.128;2022-08-07T13:49:38;6.97;;;6.30;;
73321;SDS011;61549;37.044;22.128;2022-08-07T13:52:09;7.15;;;6.40;;
73321;SDS011;61549;37.044;22.128;2022-08-07T13:54:37;8.18;;;6.53;;
73321;SDS011;61549;37.044;22.128;2022-08-07T13:57:06;6.97;;;6.15;;
73321;SDS011;61549;37.044;22.128;2022-08-07T13:59:41;6.20;;;5.60;;
73321;SDS011;61549;37.044;22.128;2022-08-07T14:02:11;6.75;;;5.90;;
73321;SDS011;61549;37.044;22.128;2022-08-07T14:07:14;6.82;;;5.70;;
73321;SDS011;61549;37.044;22.128;2022-08-07T14:09:41;7.00;;;6.30;;
73321;SDS011;61549;37.044;22.128;2022-08-07T14:12:10;6.20;;;5.60;;
73321;SDS011;61549;37.044;22.128;2022-08-07T14:15:00;6.85;;;6.03;;
73321;SDS011;61549;37.044;22.128;2022-08-07T14:17:28;6.30;;;5.70;;
73321;SDS011;61549;37.044;22.128;2022-08-07T14:20:02;5.95;;;5.30;;
73321;SDS011;61549;37.044;22.128;2022-08-07T14:22:44;6.00;;;5.40;;
73321;SDS011;61549;37.044;22.128;2022-08-07T14:25:15;6.03;;;5.50;;
73321;SDS011;61549;37.044;22.128;2022-08-07T14:27:47;6.55;;;5.43;;
73321;SDS011;61549;37.044;22.128;2022-08-07T14:30:16;6.35;;;5.25;;
73321;SDS011;61549;37.044;22.128;2022-08-07T14:32:44;6.25;;;5.65;;
73321;SDS011;61549;37.044;22.128;2022-08-07T14:35:19;5.90;;;5.28;;
73321;SDS011;61549;37.044;22.128;2022-08-07T14:37:51;7.38;;;4.95;;
73321;SDS011;61549;37.044;22.128;2022-08-07T14:40:22;6.40;;;5.20;;
73321;SDS011;61549;37.044;22.128;2022-08-07T14:42:55;5.57;;;5.07;;
73321;SDS011;61549;37.044;22.128;2022-08-07T14:48:31;5.85;;;5.10;;
73321;SDS011;61549;37.044;22.128;2022-08-07T14:51:02;6.93;;;5.03;;
73321;SDS011;61549;37.044;22.128;2022-08-07T14:53:32;5.72;;;5.20;;
73321;SDS011;61549;37.044;22.128;2022-08-07T14:56:03;5.72;;;5.10;;
73321;SDS011;61549;37.044;22.128;2022-08-07T14:58:33;30.65;;;6.47;;
73321;SDS011;61549;37.044;22.128;2022-08-07T15:01:02;10.10;;;5.30;;
73321;SDS011;61549;37.044;22.128;2022-08-07T15:03:33;7.22;;;6.50;;
73321;SDS011;61549;37.044;22.128;2022-08-07T15:06:00;6.65;;;5.90;;
73321;SDS011;61549;37.044;22.128;2022-08-07T15:08:28;6.10;;;5.50;;
73321;SDS011;61549;37.044;22.128;2022-08-07T15:11:11;7.30;;;6.18;;
73321;SDS011;61549;37.044;22.128;2022-08-07T15:13:47;6.85;;;6.18;;
73321;SDS011;61549;37.044;22.128;2022-08-07T15:16:24;7.15;;;6.45;;
73321;SDS011;61549;37.044;22.128;2022-08-07T15:19:13;6.63;;;5.95;;
73321;SDS011;61549;37.044;22.128;2022-08-07T15:21:41;6.40;;;5.80;;
73321;SDS011;61549;37.044;22.128;2022-08-07T15:24:17;7.20;;;5.60;;
73321;SDS011;61549;37.044;22.128;2022-08-07T15:26:46;6.30;;;5.50;;
73321;SDS011;61549;37.044;22.128;2022-08-07T15:29:19;10.07;;;6.30;;
73321;SDS011;61549;37.044;22.128;2022-08-07T15:31:48;6.90;;;6.15;;
73321;SDS011;61549;37.044;22.128;2022-08-07T15:34:16;6.10;;;5.50;;
73321;SDS011;61549;37.044;22.128;2022-08-07T15:36:44;7.05;;;5.72;;
73321;SDS011;61549;37.044;22.128;2022-08-07T15:39:12;6.22;;;5.50;;
73321;SDS011;61549;37.044;22.128;2022-08-07T15:41:55;5.45;;;4.95;;
73321;SDS011;61549;37.044;22.128;2022-08-07T15:44:27;10.88;;;6.53;;
73321;SDS011;61549;37.044;22.128;2022-08-07T15:47:06;9.95;;;6.18;;
73321;SDS011;61549;37.044;22.128;2022-08-07T15:49:33;6.55;;;5.95;;
73321;SDS011;61549;37.044;22.128;2022-08-07T15:52:01;6.60;;;5.90;;
73321;SDS011;61549;37.044;22.128;2022-08-07T15:54:36;6.60;;;5.68;;
73321;SDS011;61549;37.044;22.128;2022-08-07T15:57:06;7.57;;;6.05;;
73321;SDS011;61549;37.044;22.128;2022-08-07T15:59:37;6.60;;;6.00;;
73321;SDS011;61549;37.044;22.128;2022-08-07T16:02:07;6.30;;;5.70;;
73321;SDS011;61549;37.044;22.128;2022-08-07T16:04:35;7.50;;;5.57;;
73321;SDS011;61549;37.044;22.128;2022-08-07T16:07:06;6.65;;;6.00;;
73321;SDS011;61549;37.044;22.128;2022-08-07T16:09:43;8.02;;;6.25;;
73321;SDS011;61549;37.044;22.128;2022-08-07T16:15:14;8.30;;;6.93;;
73321;SDS011;61549;37.044;22.128;2022-08-07T16:24:07;7.10;;;6.32;;
73321;SDS011;61549;37.044;22.128;2022-08-07T16:37:10;7.40;;;6.35;;
73321;SDS011;61549;37.044;22.128;2022-08-07T16:51:24;7.38;;;6.63;;
73321;SDS011;61549;37.044;22.128;2022-08-07T17:00:18;7.68;;;6.88;;
73321;SDS011;61549;37.044;22.128;2022-08-07T17:02:54;7.80;;;6.78;;
73321;SDS011;61549;37.044;22.128;2022-08-07T17:06:07;9.18;;;6.90;;
73321;SDS011;61549;37.044;22.128;2022-08-07T17:11:25;7.25;;;6.55;;
73321;SDS011;61549;37.044;22.128;2022-08-07T17:14:14;10.32;;;7.43;;
73321;SDS011;61549;37.044;22.128;2022-08-07T17:16:50;12.03;;;7.60;;
73321;SDS011;61549;37.044;22.128;2022-08-07T17:22:13;8.30;;;7.40;;
73321;SDS011;61549;37.044;22.128;2022-08-07T17:30:53;10.05;;;7.28;;
73321;SDS011;61549;37.044;22.128;2022-08-07T17:33:28;11.20;;;7.65;;
73321;SDS011;61549;37.044;22.128;2022-08-07T17:36:02;8.75;;;7.03;;
73321;SDS011;61549;37.044;22.128;2022-08-07T17:41:36;9.18;;;7.45;;
73321;SDS011;61549;37.044;22.128;2022-08-07T17:44:22;9.13;;;7.00;;
73321;SDS011;61549;37.044;22.128;2022-08-07T17:46:51;8.27;;;6.88;;
73321;SDS011;61549;37.044;22.128;2022-08-07T17:49:23;7.25;;;6.53;;
73321;SDS011;61549;37.044;22.128;2022-08-07T17:52:05;7.45;;;6.22;;
73321;SDS011;61549;37.044;22.128;2022-08-07T17:54:48;8.25;;;6.38;;
73321;SDS011;61549;37.044;22.128;2022-08-07T17:57:28;7.03;;;6.32;;
73321;SDS011;61549;37.044;22.128;2022-08-07T18:00:06;6.80;;;6.15;;
73321;SDS011;61549;37.044;22.128;2022-08-07T18:16:29;8.13;;;6.18;;
73321;SDS011;61549;37.044;22.128;2022-08-07T18:22:22;9.90;;;7.18;;
73321;SDS011;61549;37.044;22.128;2022-08-07T18:24:49;8.95;;;6.95;;
73321;SDS011;61549;37.044;22.128;2022-08-07T18:33:38;7.50;;;6.45;;
73321;SDS011;61549;37.044;22.128;2022-08-07T18:39:21;6.80;;;6.20;;
73321;SDS011;61549;37.044;22.128;2022-08-07T18:42:20;6.80;;;5.97;;
73321;SDS011;61549;37.044;22.128;2022-08-07T19:01:40;6.22;;;5.60;;
73321;SDS011;61549;37.044;22.128;2022-08-07T19:04:24;6.20;;;5.60;;
73321;SDS011;61549;37.044;22.128;2022-08-07T19:07:01;6.78;;;5.60;;